Archival Weather

Wadi Al Dawasir

Wadi Al Dawasir, Saudi Arabia (OEWD)

Report from: Sunday, October 1, 2023 4:00 AM +03
Current time: Monday, February 26, 2024 12:12 AM +03

Current weather – Weather history – Daily summaries
Weather forecast

Temperature25.0°C (77.0°F)
Dew point-4.0°C (24.8°F)
Winds 6 kts (3.1 m/s, 6.9 mph) Northwest (320°)
Clouds Sky clear
Altimeter29.88 in.Hg (1012 mB)
Relative humidity14 %
Density altitude1,277 ft. (389 m)
Remarks Ceiling and visibility OK
Flight conditions Visual Meteorological Conditions
Raw dataOEWD 010100Z 32006KT CAVOK 25/M04 Q1012
An error has occurred. This application may no longer respond until reloaded. Reload 🗙